Nearby METAR Reports

 

KAGC - Pittsburgh/Alleg, Pennsylvania, USA
Distance from station: N 14mi, 23km
Updated: Sat, Nov-17-2018 2:53am EST
Mist, Overcast
Mist, Overcast
 Wind from SSW
Wind: SSW 8 mph , 13 km/h
Temperature: 34°F , 1°C
Wind Chill: 27°F , -3°C
Dew Point: 32°F , 0°C
Humidity: 93%
Barometer: 30.13 inHg , 1020.3 hPa
Summary: Mist
Clouds: Overcast
Visibility: 5 miles , 8 km
Cloud details: Overcast 2300 ft
2018/11/17 07:53 KAGC 170753Z 21007KT 5SM BR OVC023 01/00 A3013 RMK AO2 SLP222 T00060000
KAFJ - Washington, Pennsylvania, USA
Distance from station: W 17mi, 28km
Updated: Sat, Nov-17-2018 2:56am EST
Haze, Overcast
Haze, Overcast
 Wind from SW
Wind: SW 6 mph , 9 km/h
Temperature: 34°F , 1°C
Wind Chill: 29°F , -2°C
Barometer: 30.20 inHg , 1022.7 hPa
Summary: Haze
Clouds: Overcast
Visibility: 6 miles , 10 km
Cloud details: Few Clouds 900 ft
Overcast 1800 ft
2018/11/17 07:56 KAFJ 170756Z AUTO 22005KT 6SM HZ FEW009 OVC018 01/ A3020 RMK AO2 SLP236 T0011 FZRANO
 
KLBE - Latrobe, Pennsylvania, USA
Distance from station: ENE 30mi, 48km
Updated: Sat, Nov-17-2018 3:15am EST
Mist, Overcast
Mist, Overcast
 Wind from SSW
Wind: SSW 9 mph , 15 km/h
Temperature: 34°F , 1°C
Wind Chill: 27°F , -3°C
Dew Point: 34°F , 1°C
Humidity: 100%
Barometer: 30.16 inHg , 1021.3 hPa
Summary: Mist
Clouds: Overcast
Visibility: 4 miles , 6 km
Cloud details: Few Clouds 900 ft
Partly cloudy 1400 ft
Overcast 2200 ft
2018/11/17 08:15 KLBE 170815Z AUTO 20008KT 4SM BR FEW009 SCT014 OVC022 01/01 A3016 RMK AO2
KPIT - Pittsburgh, Pennsylvania, USA
Distance from station: NW 30mi, 48km
Updated: Sat, Nov-17-2018 2:51am EST
Mist, Overcast
Mist, Overcast
 Wind from SW
Wind: SW 7 mph , 11 km/h
Temperature: 34°F , 1°C
Wind Chill: 28°F , -2°C
Dew Point: 32°F , 0°C
Humidity: 93%
Barometer: 30.15 inHg , 1021 hPa
Summary: Mist
Clouds: Overcast
Visibility: 5 miles , 8 km
Cloud details: Few Clouds 600 ft
Overcast 2500 ft
2018/11/17 07:51 KPIT 170751Z 23006KT 5SM BR FEW006 OVC025 01/00 A3015 RMK AO2 SLP228 T00060000
 
KMGW - Morgantown, West Virginia, USA
Distance from station: S 34mi, 55km
Updated: Sat, Nov-17-2018 2:53am EST
Overcast
Overcast
 Wind from WSW
Wind: WSW 5 mph , 7 km/h
Temperature: 36°F , 2°C
Wind Chill: 32°F , 0°C
Dew Point: 30°F , -1°C
Humidity: 81%
Barometer: 30.19 inHg , 1022.4 hPa
Clouds: Overcast
Visibility: 8 miles , 13 km
Cloud details: Overcast 1500 ft
2018/11/17 07:53 KMGW 170753Z AUTO 24004KT 8SM OVC015 02/M01 A3019 RMK AO2 SLP235 T00171006
KHLG - Wheeling, West Virginia, USA
Distance from station: W 37mi, 60km
Updated: Sat, Nov-17-2018 2:53am EST
Mist, Overcast
Mist, Overcast
 Wind from WSW
Wind: WSW 6 mph , 9 km/h
Temperature: 34°F , 1°C
Wind Chill: 29°F , -2°C
Dew Point: 32°F , 0°C
Humidity: 93%
Barometer: 30.17 inHg , 1021.7 hPa
Summary: Mist
Clouds: Overcast
Visibility: 4 miles , 6 km
Cloud details: Few Clouds 800 ft
Overcast 1900 ft
2018/11/17 07:53 KHLG 170753Z AUTO 24005KT 4SM BR FEW008 OVC019 01/00 A3017 RMK AO2 SLP230 T00110000
 
KBTP - Butler Co., Pennsylvania, USA
Distance from station: N 43mi, 69km
Updated: Sat, Nov-17-2018 2:56am EST
Mist, Overcast
Mist, Overcast
 Wind from SW
Wind: SW 6 mph , 9 km/h
Temperature: 32°F , 0°C
Wind Chill: 26°F , -3°C
Dew Point: 30°F , -1°C
Humidity: 93%
Barometer: 30.14 inHg , 1020.7 hPa
Summary: Mist
Clouds: Overcast
Visibility: 3 miles , 5 km
Cloud details: Mostly cloudy 700 ft
Overcast 1000 ft
2018/11/17 07:56 KBTP 170756Z AUTO 23005KT 3SM BR BKN007 OVC010 00/M01 A3014 RMK AO2 SLP225 T00001006 FZRANO
KBVI - Beaver Falls Arp, Pennsylvania, USA
Distance from station: NNW 49mi, 79km
Updated: Fri, Nov-16-2018 6:47pm EST
NOT Current
Mist, Overcast
Mist, Overcast
 Wind from WSW
Wind: WSW 5 mph , 7 km/h
Temperature: 32°F , 0°C
Wind Chill: 27°F , -3°C
Dew Point: 32°F , 0°C
Humidity: 100%
Barometer: 30.00 inHg , 1015.9 hPa
Summary: Mist
Clouds: Overcast
Visibility: 2 1/2 miles , 4 km
Cloud details: Overcast 400 ft
2018/11/16 23:47 KBVI 162347Z 25004KT 2 1/2SM BR OVC004 00/00 A3000 RMK LAST
 
K2G4 - Garrett Co, Maryland, USA
Distance from station: SE 51mi, 82km
Updated: Sat, Nov-17-2018 3:25am EST
Overcast
Overcast
 Wind from W
Wind: W 5 mph , 7 km/h
Temperature: 28°F , -2°C
Wind Chill: 22°F , -6°C
Dew Point: 28°F , -2°C
Humidity: 100%
Barometer: 30.09 inHg , 1019 hPa
Clouds: Overcast
Visibility: 1/4 mile , 0.4 km
Cloud details: Overcast 200 ft
2018/11/17 08:25 K2G4 170825Z AUTO 27004KT 1/4SM OVC002 M02/M02 A3009 RMK AO1
KIDI - Indiana/Stewart, Pennsylvania, USA
Distance from station: NE 56mi, 90km
Updated: Sat, Nov-17-2018 3:35am EST
Mist, Overcast
Mist, Overcast
 Wind from W
Wind: W 13 mph , 20 km/h
Temperature: 34°F , 1°C
Wind Chill: 25°F , -4°C
Dew Point: 34°F , 1°C
Humidity: 100%
Barometer: 30.16 inHg , 1021.3 hPa
Summary: Mist
Clouds: Overcast
Visibility: 2 1/2 miles , 4 km
Cloud details: Overcast 500 ft
2018/11/17 08:35 KIDI 170835Z AUTO 27011KT 2 1/2SM BR OVC005 01/01 A3016 RMK A01
 
KJST - Johnstown, Pennsylvania, USA
Distance from station: ENE 60mi, 96km
Updated: Sat, Nov-17-2018 2:54am EST
Mist, Overcast
Mist, Overcast
 Wind from WSW
Wind: WSW 9 mph , 15 km/h
Temperature: 30°F , -1°C
Wind Chill: 22°F , -6°C
Dew Point: 28°F , -2°C
Humidity: 93%
Barometer: 30.06 inHg , 1017.9 hPa
Summary: Mist
Clouds: Overcast
Visibility: 5 miles , 8 km
Cloud details: Overcast 400 ft
2018/11/17 07:54 KJST 170754Z AUTO 25008KT 5SM BR OVC004 M01/M02 A3006 RMK AO2 SLP206 T10061022
KCBE - Cumberland Reg, Maryland, USA
Distance from station: ESE 72mi, 116km
Updated: Sat, Nov-17-2018 3:20am EST
Overcast
Overcast
 Wind from W
Wind: W 8 mph , 13 km/h
Temperature: 37°F , 3°C
Wind Chill: 31°F , -1°C
Dew Point: 28°F , -2°C
Humidity: 70%
Barometer: 30.22 inHg , 1023.4 hPa
Clouds: Overcast
Visibility: 10 miles , 16 km
Cloud details: Overcast 2500 ft
2018/11/17 08:20 KCBE 170820Z AUTO 28007KT 10SM OVC025 03/M02 A3022 RMK AO2 T00311016
 
KILG - Wilmington, Delaware, USA
Distance from station: ESE 234mi, 377km
Updated: Sat, Nov-17-2018 2:51am EST
Overcast
Overcast
 Wind from W
Wind: W 7 mph , 11 km/h
Temperature: 37°F , 3°C
Wind Chill: 32°F , 0°C
Dew Point: 32°F , 0°C
Humidity: 81%
Barometer: 30.12 inHg , 1020 hPa
Clouds: Overcast
Visibility: 10 miles , 16 km
Cloud details: Overcast 3500 ft
2018/11/17 07:51 KILG 170751Z AUTO 27006KT 10SM OVC035 03/00 A3012 RMK AO2 SLP201 T00330000 $
KTUS - Tucson, Arizona, USA
Distance from station: WSW 1806mi, 3283km
Updated: Sat, Nov-17-2018 2:53am EST
Clear
Clear
 Wind from SE
Wind: SE 5 mph , 7 km/h
Temperature: 48°F , 9°C
Wind Chill: 46°F , 8°C
Dew Point: 23°F , -5°C
Humidity: 37%
Barometer: 30.06 inHg , 1017.9 hPa
Clouds: Clear
Visibility: 10 miles , 16 km
2018/11/17 07:53 KTUS 170753Z 14004KT 10SM CLR 09/M05 A3006 RMK AO2 SLP155 T00891050